createdAt,value
2023-04-18T00:01:58.852Z,23.50
2023-04-18T00:04:26.167Z,23.40
2023-04-18T00:06:53.659Z,23.60
2023-04-18T00:09:20.843Z,23.70
2023-04-18T00:11:47.901Z,23.60
2023-04-18T00:14:15.117Z,23.30
2023-04-18T00:16:42.489Z,23.10
2023-04-18T00:19:10.601Z,22.80
2023-04-18T00:21:38.140Z,22.90
2023-04-18T00:24:06.014Z,22.80
2023-04-18T00:26:32.964Z,22.80
2023-04-18T00:29:00.040Z,22.90
2023-04-18T00:31:27.108Z,23.00
2023-04-18T00:33:54.154Z,22.90
2023-04-18T00:36:21.210Z,22.80
2023-04-18T00:38:48.247Z,22.80
2023-04-18T00:41:16.074Z,22.60
2023-04-18T00:43:43.141Z,22.50
2023-04-18T00:46:11.041Z,22.60
2023-04-18T00:48:39.281Z,22.70
2023-04-18T00:51:07.761Z,22.70
2023-04-18T00:53:34.752Z,22.50
2023-04-18T00:56:01.942Z,22.40
2023-04-18T00:58:29.942Z,22.60
2023-04-18T01:00:56.970Z,22.40
2023-04-18T01:03:25.721Z,22.50
2023-04-18T01:05:54.719Z,22.70
2023-04-18T01:08:22.128Z,23.00
2023-04-18T01:10:50.681Z,23.30
2023-04-18T01:13:21.581Z,23.50
2023-04-18T01:15:50.467Z,23.40
2023-04-18T01:18:18.451Z,23.60
2023-04-18T01:20:47.943Z,23.60
2023-04-18T01:23:16.797Z,23.40
2023-04-18T01:25:45.501Z,23.40
2023-04-18T01:28:14.284Z,23.30
2023-04-18T01:30:41.828Z,23.40
2023-04-18T01:33:08.848Z,23.40
2023-04-18T01:35:35.851Z,23.30
2023-04-18T01:38:02.968Z,23.40
2023-04-18T01:40:30.358Z,23.50
2023-04-18T01:42:57.451Z,23.60
2023-04-18T01:45:26.223Z,23.60
2023-04-18T01:47:53.312Z,23.60
2023-04-18T01:50:20.527Z,23.50
2023-04-18T01:52:47.576Z,23.40
2023-04-18T01:55:14.559Z,23.40
2023-04-18T01:57:41.571Z,23.60
2023-04-18T02:00:09.150Z,23.50
2023-04-18T02:02:36.330Z,23.40
2023-04-18T02:05:03.451Z,23.40
2023-04-18T02:07:30.671Z,23.20
2023-04-18T02:09:57.761Z,23.00
2023-04-18T02:12:24.759Z,22.80
2023-04-18T02:14:53.599Z,22.80
2023-04-18T02:17:24.044Z,23.00
2023-04-18T02:19:51.795Z,22.80
2023-04-18T02:22:19.031Z,23.00
2023-04-18T02:24:47.209Z,23.00
2023-04-18T02:27:14.365Z,23.10
2023-04-18T02:29:41.383Z,23.30
2023-04-18T02:32:10.203Z,23.70
2023-04-18T02:34:37.674Z,23.70
2023-04-18T02:37:05.072Z,24.00
2023-04-18T02:39:32.503Z,24.50
2023-04-18T02:41:59.592Z,24.80
2023-04-18T02:44:26.699Z,24.80
2023-04-18T02:46:53.885Z,24.80
2023-04-18T02:49:20.972Z,24.80
2023-04-18T02:51:48.037Z,24.70
2023-04-18T02:54:15.307Z,24.70
2023-04-18T02:56:43.031Z,24.80
2023-04-18T02:59:10.206Z,24.70
2023-04-18T03:01:37.425Z,24.60
2023-04-18T03:04:04.599Z,24.80
2023-04-18T03:06:32.029Z,24.60
2023-04-18T03:08:59.214Z,24.70
2023-04-18T03:11:26.242Z,24.70
2023-04-18T03:13:54.242Z,24.90
2023-04-18T03:16:21.721Z,24.70
2023-04-18T03:18:49.141Z,24.70
2023-04-18T03:21:16.234Z,24.50
2023-04-18T03:23:43.373Z,24.30
2023-04-18T03:26:13.872Z,24.20
2023-04-18T03:28:41.350Z,24.10
2023-04-18T03:31:08.381Z,24.20
2023-04-18T03:33:35.572Z,24.00
2023-04-18T03:36:03.272Z,23.60
2023-04-18T03:38:30.832Z,23.50
2023-04-18T03:40:57.991Z,23.80
2023-04-18T03:43:25.235Z,23.90
2023-04-18T03:45:52.409Z,23.90
2023-04-18T03:48:19.499Z,24.00
2023-04-18T03:50:46.549Z,24.00
2023-04-18T03:53:14.497Z,24.00
2023-04-18T03:55:41.837Z,24.30
2023-04-18T03:58:09.068Z,24.40
2023-04-18T04:00:36.272Z,24.40
2023-04-18T04:03:03.333Z,24.40
2023-04-18T04:05:30.655Z,24.40
2023-04-18T04:07:57.847Z,24.30
2023-04-18T04:10:24.889Z,24.30
2023-04-18T04:12:52.054Z,24.20
2023-04-18T04:15:19.044Z,24.60
2023-04-18T04:17:46.288Z,24.80
2023-04-18T04:20:13.429Z,25.20
2023-04-18T04:22:40.619Z,25.10
2023-04-18T04:25:08.321Z,25.00
2023-04-18T04:27:37.078Z,25.00
2023-04-18T04:30:05.313Z,25.00
2023-04-18T04:32:33.130Z,24.70
2023-04-18T04:35:00.295Z,24.40
2023-04-18T04:37:28.304Z,24.50
2023-04-18T04:39:57.013Z,24.30
2023-04-18T04:42:25.305Z,24.20
2023-04-18T04:44:53.894Z,24.10
2023-04-18T04:47:21.054Z,24.30
2023-04-18T04:49:48.066Z,24.30
2023-04-18T04:52:15.176Z,24.30
2023-04-18T04:54:43.507Z,24.20
2023-04-18T04:57:10.681Z,24.00
2023-04-18T04:59:37.815Z,24.10
2023-04-18T05:02:04.923Z,24.20
2023-04-18T05:04:33.581Z,24.30
2023-04-18T05:07:00.707Z,24.10
2023-04-18T05:09:27.761Z,23.90
2023-04-18T05:11:54.791Z,23.90
2023-04-18T05:14:21.864Z,24.10
2023-04-18T05:16:48.974Z,24.10
2023-04-18T05:19:16.062Z,24.20
2023-04-18T05:21:43.144Z,24.10
2023-04-18T05:24:10.785Z,23.90
2023-04-18T05:26:38.014Z,24.30
2023-04-18T05:29:05.081Z,24.10
2023-04-18T05:31:32.404Z,24.50
2023-04-18T05:33:59.523Z,24.40
2023-04-18T05:36:26.872Z,24.10
2023-04-18T05:38:53.882Z,23.90
2023-04-18T05:41:20.878Z,24.00
2023-04-18T05:44:01.819Z,24.10
2023-04-18T05:46:35.654Z,24.00
2023-04-18T05:49:03.671Z,23.70
2023-04-18T05:51:31.436Z,23.80
2023-04-18T05:53:58.382Z,23.90
2023-04-18T05:56:25.518Z,24.50
2023-04-18T05:58:52.626Z,24.30
2023-04-18T06:01:19.672Z,24.30
2023-04-18T06:03:47.212Z,24.20
2023-04-18T06:06:14.629Z,24.30
2023-04-18T06:08:42.030Z,23.80
2023-04-18T06:11:09.294Z,23.50
2023-04-18T06:13:37.405Z,23.60
2023-04-18T06:16:05.160Z,23.70
2023-04-18T06:18:33.929Z,23.80
2023-04-18T06:21:02.733Z,23.70
2023-04-18T06:23:29.775Z,23.90
2023-04-18T06:25:57.660Z,24.10
2023-04-18T06:28:25.308Z,23.80
2023-04-18T06:30:52.314Z,23.60
2023-04-18T06:33:19.320Z,23.40
2023-04-18T06:35:46.627Z,23.70
2023-04-18T06:38:15.202Z,23.50
2023-04-18T06:40:42.220Z,23.20
2023-04-18T06:43:09.299Z,23.20
2023-04-18T06:45:36.530Z,23.30
2023-04-18T06:48:04.295Z,23.50
2023-04-18T06:50:31.609Z,23.60
2023-04-18T06:52:58.578Z,23.50
2023-04-18T06:55:28.074Z,23.40
2023-04-18T06:57:55.202Z,23.00
2023-04-18T07:00:22.360Z,22.80
2023-04-18T07:02:49.734Z,22.90
2023-04-18T07:05:16.875Z,23.10
2023-04-18T07:07:43.880Z,22.90
2023-04-18T07:10:11.659Z,22.80
2023-04-18T07:12:38.919Z,22.70
2023-04-18T07:15:06.480Z,22.70
2023-04-18T07:17:33.642Z,22.80
2023-04-18T07:20:00.979Z,23.10
2023-04-18T07:22:30.122Z,23.00
2023-04-18T07:24:57.090Z,23.30
2023-04-18T07:27:26.051Z,23.30
2023-04-18T07:29:55.430Z,23.40
2023-04-18T07:32:22.584Z,23.00
2023-04-18T07:34:49.628Z,23.00
2023-04-18T07:37:18.515Z,22.70
2023-04-18T07:39:45.798Z,22.80
2023-04-18T07:42:12.798Z,22.80
2023-04-18T07:44:40.177Z,22.60
2023-04-18T07:47:11.692Z,22.50
2023-04-18T07:49:39.109Z,22.50
2023-04-18T07:52:06.450Z,22.30
2023-04-18T07:54:33.613Z,22.00
2023-04-18T07:57:00.959Z,21.40
2023-04-18T07:59:29.054Z,21.40
2023-04-18T08:01:56.056Z,21.60
2023-04-18T08:04:23.294Z,21.90
2023-04-18T08:06:50.760Z,22.10
2023-04-18T08:09:19.342Z,21.40
2023-04-18T08:11:46.791Z,22.00
2023-04-18T08:14:14.035Z,21.80
2023-04-18T08:16:41.122Z,21.50
2023-04-18T08:19:08.186Z,21.60
2023-04-18T08:21:35.474Z,20.80
2023-04-18T08:24:02.538Z,20.50
2023-04-18T08:26:29.496Z,20.50
2023-04-18T08:28:56.854Z,20.60
2023-04-18T08:31:23.879Z,20.30
2023-04-18T08:33:50.991Z,20.20
2023-04-18T08:36:18.028Z,19.90
2023-04-18T08:38:45.230Z,19.20
2023-04-18T08:41:12.225Z,18.60
2023-04-18T08:43:39.231Z,18.50
2023-04-18T08:46:06.778Z,18.00
2023-04-18T08:48:33.906Z,18.20
2023-04-18T08:51:02.352Z,18.30
2023-04-18T08:53:29.489Z,17.70
2023-04-18T08:55:57.314Z,18.00
2023-04-18T08:58:27.207Z,17.80
2023-04-18T09:00:54.830Z,17.80
2023-04-18T09:03:39.939Z,17.10
2023-04-18T09:06:16.249Z,17.30
2023-04-18T09:08:54.954Z,17.50
2023-04-18T09:11:29.512Z,17.20
2023-04-18T09:13:59.149Z,17.30
2023-04-18T09:16:28.263Z,17.10
2023-04-18T09:19:18.771Z,16.70
2023-04-18T09:21:47.295Z,17.20
2023-04-18T09:24:21.239Z,17.10
2023-04-18T09:26:49.940Z,17.10
2023-04-18T09:29:18.688Z,16.70
2023-04-18T09:32:02.016Z,16.90
2023-04-18T09:34:29.605Z,16.90
2023-04-18T09:37:16.044Z,16.70
2023-04-18T09:39:44.552Z,16.10
2023-04-18T09:42:12.541Z,16.50
2023-04-18T09:45:06.219Z,16.70
2023-04-18T09:47:35.291Z,17.00
2023-04-18T09:50:10.565Z,16.60
2023-04-18T09:52:39.641Z,16.70
2023-04-18T09:55:12.001Z,16.50
2023-04-18T09:57:43.144Z,16.20
2023-04-18T10:00:25.448Z,16.90
2023-04-18T10:03:08.913Z,16.20
2023-04-18T10:05:39.347Z,16.10
2023-04-18T10:08:06.984Z,16.10
2023-04-18T10:10:34.135Z,16.80
2023-04-18T10:13:03.269Z,16.50
2023-04-18T10:15:31.411Z,16.20
2023-04-18T10:18:05.221Z,15.90
2023-04-18T10:20:35.491Z,16.10
2023-04-18T10:23:32.105Z,16.20
2023-04-18T10:25:59.890Z,16.10
2023-04-18T10:28:28.290Z,16.40
2023-04-18T10:31:05.787Z,16.30
2023-04-18T10:33:40.760Z,16.80
2023-04-18T10:36:09.486Z,17.10
2023-04-18T10:38:45.239Z,17.30
2023-04-18T10:41:26.687Z,17.60
2023-04-18T10:44:13.471Z,17.30
2023-04-18T10:46:43.168Z,17.30
2023-04-18T10:49:32.644Z,17.60
2023-04-18T10:52:03.251Z,17.50
2023-04-18T10:54:39.304Z,17.40
2023-04-18T10:57:11.384Z,17.40
2023-04-18T10:59:43.540Z,17.60
2023-04-18T11:02:27.322Z,17.50
2023-04-18T11:04:59.180Z,17.70
2023-04-18T11:07:33.562Z,17.60
2023-04-18T11:10:01.843Z,17.60
2023-04-18T11:12:34.662Z,17.00
2023-04-18T11:15:10.915Z,17.40
2023-04-18T11:17:40.453Z,17.20
2023-04-18T11:20:15.174Z,16.40
2023-04-18T11:22:51.692Z,16.40
2023-04-18T11:25:22.328Z,16.20
2023-04-18T11:27:55.156Z,17.30
2023-04-18T11:30:22.777Z,16.90
2023-04-18T11:32:49.911Z,16.60
2023-04-18T11:35:17.148Z,16.90
2023-04-18T11:37:46.020Z,16.70
2023-04-18T11:40:14.839Z,17.30
2023-04-18T11:42:42.535Z,17.80
2023-04-18T11:45:14.712Z,17.70
2023-04-18T11:47:43.560Z,17.30
2023-04-18T11:50:12.926Z,17.80
2023-04-18T11:52:42.670Z,17.60
2023-04-18T11:55:14.568Z,17.60
2023-04-18T11:57:42.116Z,17.20
2023-04-18T12:00:12.616Z,17.50
2023-04-18T12:02:46.131Z,17.40
2023-04-18T12:05:24.813Z,17.70
2023-04-18T12:07:52.117Z,18.10
2023-04-18T12:10:28.650Z,18.60
2023-04-18T12:13:00.336Z,19.20
2023-04-18T12:15:30.887Z,18.70
2023-04-18T12:18:05.226Z,18.50
2023-04-18T12:20:40.137Z,18.20
2023-04-18T12:23:07.985Z,18.50
2023-04-18T12:25:35.462Z,18.40
2023-04-18T12:28:16.689Z,18.60
2023-04-18T12:30:43.773Z,18.30
2023-04-18T12:33:11.432Z,18.10
2023-04-18T12:35:38.605Z,18.10
2023-04-18T12:38:06.050Z,17.90
2023-04-18T12:40:33.044Z,17.50
2023-04-18T12:43:02.199Z,17.70
2023-04-18T12:45:31.369Z,17.80
2023-04-18T12:47:58.432Z,18.10
2023-04-18T12:50:27.243Z,18.80
2023-04-18T12:52:55.795Z,18.40
2023-04-18T12:55:23.068Z,18.60
2023-04-18T12:57:52.541Z,18.80
2023-04-18T13:00:19.896Z,18.90
2023-04-18T13:02:47.212Z,19.00
2023-04-18T13:05:16.422Z,19.00
2023-04-18T13:07:44.078Z,19.30
2023-04-18T13:10:12.934Z,19.60
2023-04-18T13:12:41.310Z,19.10
2023-04-18T13:15:11.890Z,19.20
2023-04-18T13:17:40.130Z,19.60
2023-04-18T13:20:15.238Z,19.00
2023-04-18T13:22:44.103Z,19.20
2023-04-18T13:25:11.722Z,19.20
2023-04-18T13:27:42.226Z,19.10
2023-04-18T13:30:12.149Z,18.90
2023-04-18T13:32:40.610Z,18.40
2023-04-18T13:35:11.646Z,18.70
2023-04-18T13:37:41.010Z,18.60
2023-04-18T13:40:08.521Z,19.00
2023-04-18T13:42:37.853Z,19.00
2023-04-18T13:45:05.700Z,19.30
2023-04-18T13:47:32.783Z,19.60
2023-04-18T13:50:01.179Z,19.60
2023-04-18T13:52:31.463Z,19.60
2023-04-18T13:54:58.435Z,19.70
2023-04-18T13:57:27.815Z,20.20
2023-04-18T13:59:57.008Z,20.40
2023-04-18T14:02:24.222Z,19.70
2023-04-18T14:04:52.451Z,20.30
2023-04-18T14:07:19.600Z,20.00
2023-04-18T14:09:48.226Z,19.70
2023-04-18T14:12:15.415Z,19.20
2023-04-18T14:14:42.550Z,18.60
2023-04-18T14:17:09.617Z,18.40
2023-04-18T14:19:36.604Z,18.60
2023-04-18T14:22:03.734Z,18.00
2023-04-18T14:24:30.921Z,17.90
2023-04-18T14:26:58.441Z,18.30
2023-04-18T14:29:25.653Z,18.50
2023-04-18T14:31:52.610Z,18.70
2023-04-18T14:34:19.659Z,18.80
2023-04-18T14:36:47.114Z,18.80
2023-04-18T14:39:14.314Z,18.90
2023-04-18T14:41:41.749Z,19.40
2023-04-18T14:44:08.948Z,19.70
2023-04-18T14:46:36.003Z,19.50
2023-04-18T14:49:03.031Z,19.80
2023-04-18T14:51:30.096Z,19.90
2023-04-18T14:53:57.308Z,20.10
2023-04-18T14:56:24.415Z,20.30
2023-04-18T14:58:51.629Z,20.20
2023-04-18T15:01:18.850Z,20.00
2023-04-18T15:03:46.429Z,19.70
2023-04-18T15:06:13.675Z,20.30
2023-04-18T15:08:40.748Z,20.50
2023-04-18T15:11:10.519Z,20.70
2023-04-18T15:13:38.867Z,20.50
2023-04-18T15:16:06.787Z,20.80
2023-04-18T15:18:34.334Z,21.40
2023-04-18T15:21:01.504Z,21.90
2023-04-18T15:23:28.701Z,22.60
2023-04-18T15:25:55.886Z,23.20
2023-04-18T15:28:23.312Z,23.30
2023-04-18T15:30:50.367Z,23.50
2023-04-18T15:33:19.206Z,23.20
2023-04-18T15:35:48.616Z,22.80
2023-04-18T15:38:18.803Z,22.90
2023-04-18T15:40:45.889Z,22.60
2023-04-18T15:43:16.317Z,22.50
2023-04-18T15:45:44.675Z,23.20
2023-04-18T15:48:13.325Z,23.30
2023-04-18T15:50:44.716Z,22.80
2023-04-18T15:53:11.877Z,23.00
2023-04-18T15:55:39.023Z,22.60
2023-04-18T15:58:06.708Z,22.30
2023-04-18T16:00:33.641Z,22.80
2023-04-18T16:03:00.842Z,22.80
2023-04-18T16:05:28.034Z,22.90
2023-04-18T16:07:56.291Z,22.90
2023-04-18T16:10:23.994Z,23.00
2023-04-18T16:12:51.067Z,22.40
2023-04-18T16:15:18.128Z,22.40
2023-04-18T16:17:45.190Z,22.20
2023-04-18T16:20:12.390Z,22.40
2023-04-18T16:22:39.653Z,22.90
2023-04-18T16:25:07.153Z,22.90
2023-04-18T16:27:35.345Z,22.70
2023-04-18T16:33:05.958Z,23.30
2023-04-18T16:35:33.153Z,23.30
2023-04-18T16:38:01.401Z,23.20
2023-04-18T16:40:30.726Z,23.30
2023-04-18T16:42:58.386Z,23.40
2023-04-18T16:45:26.454Z,23.70
2023-04-18T16:47:53.567Z,23.70
2023-04-18T16:50:22.918Z,23.60
2023-04-18T16:52:49.965Z,23.00
2023-04-18T16:55:16.918Z,23.20
2023-04-18T16:57:44.028Z,23.20
2023-04-18T17:00:13.594Z,23.70
2023-04-18T17:02:45.260Z,23.50
2023-04-18T17:05:21.830Z,23.60
2023-04-18T17:07:54.434Z,23.30
2023-04-18T17:10:22.878Z,23.10
2023-04-18T17:12:50.250Z,23.10
2023-04-18T17:15:21.335Z,23.40
2023-04-18T17:17:50.417Z,23.20
2023-04-18T17:20:18.106Z,23.40
2023-04-18T17:22:45.449Z,23.60
2023-04-18T17:25:12.700Z,23.50
2023-04-18T17:27:43.459Z,23.40
2023-04-18T17:30:11.289Z,23.40
2023-04-18T17:32:43.074Z,23.30
2023-04-18T17:35:10.549Z,23.20
2023-04-18T17:37:37.793Z,23.40
2023-04-18T17:40:09.990Z,23.30
2023-04-18T17:42:37.187Z,23.50
2023-04-18T17:45:05.582Z,23.60
2023-04-18T17:47:36.752Z,23.70
2023-04-18T17:50:04.822Z,24.30
2023-04-18T17:52:31.980Z,24.30
2023-04-18T17:54:59.884Z,24.50
2023-04-18T17:57:27.523Z,24.60
2023-04-18T17:59:54.646Z,24.30
2023-04-18T18:02:23.666Z,24.30
2023-04-18T18:04:51.621Z,24.50
2023-04-18T18:07:18.893Z,24.50
2023-04-18T18:09:48.896Z,24.20
2023-04-18T18:12:15.947Z,23.90
2023-04-18T18:14:42.940Z,23.90
2023-04-18T18:17:13.153Z,23.70
2023-04-18T18:19:42.662Z,23.50
2023-04-18T18:22:09.859Z,23.40
2023-04-18T18:24:36.832Z,23.20
2023-04-18T18:27:04.988Z,23.10
2023-04-18T18:29:33.398Z,23.10
2023-04-18T18:32:00.816Z,23.00
2023-04-18T18:34:29.913Z,22.90
2023-04-18T18:36:56.969Z,23.10
2023-04-18T18:39:24.096Z,22.70
2023-04-18T18:41:52.240Z,23.20
2023-04-18T18:44:19.497Z,23.40
2023-04-18T18:46:46.599Z,23.50
2023-04-18T18:49:14.132Z,23.10
2023-04-18T18:51:41.445Z,23.40
2023-04-18T18:54:08.470Z,23.30
2023-04-18T18:56:35.463Z,23.50
2023-04-18T18:59:02.636Z,23.90
2023-04-18T19:01:30.320Z,23.70
2023-04-18T19:03:58.886Z,23.80
2023-04-18T19:06:26.740Z,23.40
2023-04-18T19:08:53.750Z,24.00
2023-04-18T19:11:21.091Z,23.50
2023-04-18T19:13:51.035Z,23.60
2023-04-18T19:16:18.186Z,23.70
2023-04-18T19:18:47.485Z,23.90
2023-04-18T19:21:14.757Z,24.60
2023-04-18T19:23:44.930Z,25.00
2023-04-18T19:26:11.966Z,24.50
2023-04-18T19:28:39.084Z,24.20
2023-04-18T19:31:06.366Z,24.70
2023-04-18T19:33:33.464Z,24.80
2023-04-18T19:36:00.608Z,24.50
2023-04-18T19:38:27.914Z,24.30
2023-04-18T19:40:54.962Z,24.10
2023-04-18T19:43:22.118Z,23.90
2023-04-18T19:45:53.752Z,23.50
2023-04-18T19:48:22.084Z,23.40
2023-04-18T19:50:49.736Z,23.50
2023-04-18T19:53:18.902Z,24.00
2023-04-18T19:55:46.325Z,23.90
2023-04-18T19:58:53.444Z,23.70
2023-04-18T20:01:21.367Z,23.80
2023-04-18T20:03:48.803Z,23.20
2023-04-18T20:06:17.052Z,23.50
2023-04-18T20:08:53.613Z,23.20
2023-04-18T20:11:22.832Z,22.60
2023-04-18T20:13:56.695Z,22.50
2023-04-18T20:16:26.680Z,22.50
2023-04-18T20:18:55.070Z,22.80
2023-04-18T20:21:25.107Z,22.50
2023-04-18T20:23:55.338Z,22.10
2023-04-18T20:26:22.547Z,21.70
2023-04-18T20:28:49.744Z,21.70
2023-04-18T20:31:16.866Z,21.70
2023-04-18T20:33:44.005Z,21.60
2023-04-18T20:36:11.090Z,21.20
2023-04-18T20:38:38.208Z,20.90
2023-04-18T20:41:05.312Z,20.70
2023-04-18T20:43:36.704Z,20.80
2023-04-18T20:46:03.829Z,20.80
2023-04-18T20:48:31.053Z,20.80
2023-04-18T20:50:58.204Z,20.90
2023-04-18T20:53:29.091Z,21.00
2023-04-18T20:55:56.196Z,21.00
2023-04-18T20:58:23.294Z,21.10
2023-04-18T21:00:50.275Z,21.00
2023-04-18T21:03:18.871Z,21.00
2023-04-18T21:05:45.987Z,20.90
2023-04-18T21:08:12.966Z,21.00
2023-04-18T21:10:40.106Z,21.10
2023-04-18T21:13:07.355Z,21.30
2023-04-18T21:15:35.885Z,21.10
2023-04-18T21:18:03.054Z,21.20
2023-04-18T21:20:30.206Z,21.10
2023-04-18T21:22:57.350Z,21.20
2023-04-18T21:25:24.394Z,21.20
2023-04-18T21:27:51.367Z,21.30
2023-04-18T21:30:18.586Z,21.50
2023-04-18T21:32:47.323Z,21.40
2023-04-18T21:35:15.635Z,21.70
2023-04-18T21:37:44.414Z,21.90
2023-04-18T21:40:11.631Z,22.20
2023-04-18T21:42:38.622Z,22.30
2023-04-18T21:45:06.464Z,21.90
2023-04-18T21:47:33.731Z,21.90
2023-04-18T21:50:00.798Z,21.90
2023-04-18T21:52:27.992Z,22.00
2023-04-18T21:54:55.048Z,22.00
2023-04-18T21:57:22.061Z,22.00
2023-04-18T21:59:49.089Z,21.70
2023-04-18T22:02:17.403Z,21.70
2023-04-18T22:04:45.993Z,21.70
2023-04-18T22:07:13.593Z,21.70
2023-04-18T22:09:40.951Z,21.70
2023-04-18T22:12:08.689Z,21.90
2023-04-18T22:14:36.218Z,21.90
2023-04-18T22:17:05.935Z,22.00
2023-04-18T22:19:33.498Z,21.90
2023-04-18T22:22:00.719Z,21.80
2023-04-18T22:24:27.809Z,21.60
2023-04-18T22:26:54.777Z,21.50
2023-04-18T22:29:21.936Z,21.30
2023-04-18T22:31:48.887Z,21.50
2023-04-18T22:34:16.265Z,21.50
2023-04-18T22:36:45.603Z,21.30
2023-04-18T22:39:12.598Z,21.30
2023-04-18T22:41:39.571Z,21.10
2023-04-18T22:44:06.890Z,21.10
2023-04-18T22:46:33.939Z,21.10
2023-04-18T22:49:01.004Z,21.10
2023-04-18T22:51:28.982Z,21.10
2023-04-18T22:53:56.566Z,21.30
2023-04-18T22:56:23.588Z,21.30
2023-04-18T22:58:50.815Z,21.20
2023-04-18T23:01:18.066Z,21.10
2023-04-18T23:03:45.321Z,20.60
2023-04-18T23:06:12.554Z,20.40
2023-04-18T23:08:39.585Z,20.30
2023-04-18T23:11:06.592Z,20.40
2023-04-18T23:13:33.650Z,20.40
2023-04-18T23:16:00.864Z,20.30
2023-04-18T23:18:31.279Z,20.30
2023-04-18T23:21:00.159Z,20.30
2023-04-18T23:23:27.373Z,20.30
2023-04-18T23:25:54.321Z,20.20
2023-04-18T23:28:21.469Z,20.30
2023-04-18T23:30:50.883Z,20.20
2023-04-18T23:33:17.904Z,20.10
2023-04-18T23:35:45.001Z,20.20
2023-04-18T23:38:12.054Z,20.40
2023-04-18T23:40:39.064Z,20.60
2023-04-18T23:43:06.113Z,20.90
2023-04-18T23:45:33.526Z,21.10
2023-04-18T23:48:01.053Z,21.30
2023-04-18T23:50:28.135Z,21.30
2023-04-18T23:52:55.122Z,21.40
2023-04-18T23:55:22.203Z,21.50
2023-04-18T23:57:49.305Z,21.60
